Time;durP1;ratioP1;P1;durP2;ratioP2;P2;SDS_P1;SDS_P2;PMS_P1;PMS_P2;Temp;Humidity;BMP_temperature;BMP_pressure;BME280_temperature;BME280_humidity;BME280_pressure;Samples;Min_cycle;Max_cycle;Signal;HPM_P1;HPM_P2
2021/10/03 00:00:29;;;;;;;14.40;10.52;;;;;;;15.00;62.25;100010.53;5009322;28;20108;-76
2021/10/03 00:02:57;;;;;;;14.23;10.70;;;;;;;15.02;61.96;100005.19;5007634;28;20493;-76
2021/10/03 00:05:23;;;;;;;16.00;10.57;;;;;;;14.97;62.03;100002.69;5005157;28;20038;-77
2021/10/03 00:07:51;;;;;;;14.13;11.25;;;;;;;14.98;62.47;100006.19;5007636;28;20531;-76
2021/10/03 00:10:22;;;;;;;13.80;10.23;;;;;;;14.99;62.32;100002.66;5010930;28;20759;-76
2021/10/03 00:12:48;;;;;;;13.15;10.85;;;;;;;14.94;62.20;100012.56;5004770;28;20053;-76
2021/10/03 00:15:16;;;;;;;15.35;10.73;;;;;;;14.92;62.33;100004.63;5004136;28;20034;-76
2021/10/03 00:17:42;;;;;;;14.43;10.43;;;;;;;14.92;62.00;100006.41;5007983;28;20046;-76
2021/10/03 00:20:09;;;;;;;15.90;10.75;;;;;;;14.93;61.88;100002.81;5007144;28;20034;-76
2021/10/03 00:22:34;;;;;;;15.98;10.93;;;;;;;14.89;62.18;100002.94;5015825;28;20513;-76
2021/10/03 00:25:00;;;;;;;16.27;10.40;;;;;;;14.87;62.22;100003.91;5003788;28;20035;-76
2021/10/03 00:27:26;;;;;;;15.63;10.02;;;;;;;14.86;61.93;99997.72;5004757;28;20065;-76
2021/10/03 00:29:51;;;;;;;11.48;9.50;;;;;;;14.88;61.74;99993.22;5003223;28;20062;-77
2021/10/03 00:32:16;;;;;;;13.10;10.00;;;;;;;14.90;61.78;99982.53;5005252;28;20037;-75
2021/10/03 00:34:42;;;;;;;15.65;10.73;;;;;;;14.88;61.77;99987.91;5002206;28;20034;-76
2021/10/03 00:37:07;;;;;;;15.00;9.35;;;;;;;14.89;61.45;99980.81;5005726;28;20065;-75
2021/10/03 00:39:32;;;;;;;13.57;10.38;;;;;;;14.89;61.89;99988.78;5002212;28;20125;-76
2021/10/03 00:41:58;;;;;;;13.05;9.68;;;;;;;14.84;61.99;99988.91;5005565;28;20045;-80
2021/10/03 00:44:23;;;;;;;13.05;9.88;;;;;;;14.83;61.78;99992.50;5003527;28;20046;-80
2021/10/03 00:46:49;;;;;;;12.65;9.60;;;;;;;14.80;62.02;99989.97;5005304;28;20129;-79
2021/10/03 00:49:15;;;;;;;12.95;9.93;;;;;;;14.78;62.01;99983.81;5003444;28;20040;-76
2021/10/03 00:51:40;;;;;;;13.38;9.32;;;;;;;14.76;61.92;99985.66;5003488;28;20031;-75
2021/10/03 00:54:06;;;;;;;14.23;10.00;;;;;;;14.71;61.97;99982.25;5003869;28;20041;-75
2021/10/03 00:56:31;;;;;;;15.52;10.18;;;;;;;14.72;61.76;99985.78;5002818;28;20088;-76
2021/10/03 00:58:57;;;;;;;16.70;10.32;;;;;;;14.73;61.73;99972.47;5004620;28;20121;-75
2021/10/03 01:01:23;;;;;;;13.93;10.00;;;;;;;14.74;61.95;99974.19;5002258;28;20392;-75
2021/10/03 01:03:49;;;;;;;13.88;10.90;;;;;;;14.76;61.85;99976.81;5004861;28;20034;-75
2021/10/03 01:06:15;;;;;;;12.48;9.48;;;;;;;14.75;61.43;99967.97;5001521;28;20126;-75
2021/10/03 01:08:41;;;;;;;12.38;9.70;;;;;;;14.73;61.82;99974.25;5001502;28;20034;-76
2021/10/03 01:11:06;;;;;;;11.40;9.35;;;;;;;14.77;61.68;99966.13;5004719;28;20096;-76
2021/10/03 01:13:32;;;;;;;12.85;9.55;;;;;;;14.77;61.53;99965.25;5001916;28;20045;-76
2021/10/03 01:15:58;;;;;;;12.50;9.10;;;;;;;14.73;61.72;99959.19;5000961;28;20030;-77
2021/10/03 01:18:24;;;;;;;12.30;8.90;;;;;;;14.71;61.74;99968.97;5006519;28;20500;-77
2021/10/03 01:20:49;;;;;;;12.80;9.35;;;;;;;14.72;61.76;99968.06;5008509;28;20034;-77
2021/10/03 01:23:16;;;;;;;11.10;8.57;;;;;;;14.79;61.30;99968.75;5006401;28;20038;-76
2021/10/03 01:25:46;;;;;;;13.18;9.43;;;;;;;14.82;61.09;99964.19;5007154;28;20056;-77
2021/10/03 01:28:12;;;;;;;11.68;9.48;;;;;;;14.83;61.33;99960.63;5008887;28;20038;-76
2021/10/03 01:30:40;;;;;;;11.18;8.40;;;;;;;14.85;61.20;99957.91;5004171;28;20038;-76
2021/10/03 01:33:06;;;;;;;13.15;9.20;;;;;;;14.83;60.96;99960.63;5002784;28;20077;-76
2021/10/03 01:35:31;;;;;;;12.15;9.93;;;;;;;14.85;60.79;99956.09;5002779;28;20070;-76
2021/10/03 01:37:57;;;;;;;10.82;8.75;;;;;;;14.86;60.96;99944.59;5003698;28;20030;-76
2021/10/03 01:40:23;;;;;;;14.55;8.90;;;;;;;14.91;60.64;99947.09;5007153;28;20039;-76
2021/10/03 01:42:52;;;;;;;13.15;9.15;;;;;;;14.92;60.55;99947.97;5001111;28;20095;-76
2021/10/03 01:45:21;;;;;;;12.85;9.23;;;;;;;14.96;60.45;99954.88;5003920;28;20038;-76
2021/10/03 01:48:06;;;;;;;12.77;9.38;;;;;;;14.99;59.77;99944.19;5001497;28;20046;-77
2021/10/03 01:50:44;;;;;;;12.88;9.85;;;;;;;15.08;59.66;99954.47;5001506;28;20497;-76
2021/10/03 01:53:12;;;;;;;11.18;9.05;;;;;;;15.06;59.74;99949.25;5002737;28;20041;-76
2021/10/03 01:55:38;;;;;;;13.52;9.18;;;;;;;15.02;59.98;99963.53;5003890;28;20045;-76
2021/10/03 01:58:05;;;;;;;13.38;9.32;;;;;;;15.01;60.13;99963.56;5000797;28;20038;-76
2021/10/03 02:00:30;;;;;;;10.23;9.07;;;;;;;14.98;60.15;99958.38;5004358;28;20404;-76
2021/10/03 02:03:01;;;;;;;12.50;9.65;;;;;;;14.98;60.26;99963.69;5003590;28;20037;-76
2021/10/03 02:05:26;;;;;;;11.60;9.13;;;;;;;14.98;60.07;99964.53;5004064;28;20042;-75
2021/10/03 02:07:52;;;;;;;15.05;9.68;;;;;;;14.92;60.00;99961.25;5004061;28;20030;-75
2021/10/03 02:10:17;;;;;;;11.93;9.38;;;;;;;14.80;60.54;99968.69;5001249;28;20049;-75
2021/10/03 02:12:43;;;;;;;15.57;10.02;;;;;;;14.76;60.41;99972.38;5005251;28;20113;-75
2021/10/03 02:15:09;;;;;;;16.10;10.35;;;;;;;14.67;60.70;99975.28;5005527;28;20062;-75
2021/10/03 02:17:34;;;;;;;16.13;8.90;;;;;;;14.67;61.07;99969.97;5006918;28;20077;-76
2021/10/03 02:20:00;;;;;;;12.45;9.63;;;;;;;14.61;60.95;99975.50;5001987;28;20034;-75
2021/10/03 02:22:25;;;;;;;12.15;9.40;;;;;;;14.58;60.79;99980.91;5004769;28;20156;-75
2021/10/03 02:24:55;;;;;;;13.98;9.93;;;;;;;14.53;61.24;99977.53;5004069;28;20038;-75
2021/10/03 02:27:23;;;;;;;12.95;10.02;;;;;;;14.51;61.04;99984.63;5001700;28;20414;-75
2021/10/03 02:29:48;;;;;;;15.43;10.00;;;;;;;14.49;60.93;99987.34;5001157;28;20052;-75
2021/10/03 02:32:14;;;;;;;14.63;10.10;;;;;;;14.43;61.39;99980.44;5001218;28;20038;-75
2021/10/03 02:34:39;;;;;;;11.15;9.45;;;;;;;14.34;61.57;99986.03;5002673;28;20051;-75
2021/10/03 02:37:04;;;;;;;15.30;10.50;;;;;;;14.30;62.09;99981.72;5000411;28;20065;-75
2021/10/03 02:39:30;;;;;;;14.90;10.45;;;;;;;14.37;61.51;99987.72;5003537;28;20034;-75
2021/10/03 02:41:55;;;;;;;13.05;10.52;;;;;;;14.35;61.72;99979.78;4999143;28;20030;-76
2021/10/03 02:44:20;;;;;;;12.57;9.60;;;;;;;14.30;61.82;99976.41;5003149;28;20057;-75
2021/10/03 02:46:46;;;;;;;13.73;10.25;;;;;;;14.21;61.77;99972.25;4999272;28;20038;-75
2021/10/03 02:49:11;;;;;;;11.98;10.18;;;;;;;14.12;62.69;99982.25;5001316;28;20100;-76
2021/10/03 02:51:37;;;;;;;15.07;10.85;;;;;;;14.10;62.89;99974.38;5001154;28;20118;-75
2021/10/03 02:54:02;;;;;;;13.30;10.52;;;;;;;14.11;62.69;99965.47;5001518;28;20044;-76
2021/10/03 02:56:30;;;;;;;16.83;11.77;;;;;;;14.06;62.69;99966.53;5001954;28;20439;-78
2021/10/03 02:58:55;;;;;;;14.18;10.93;;;;;;;14.02;62.89;99971.06;5001479;28;20042;-77
2021/10/03 03:01:21;;;;;;;12.88;9.80;;;;;;;13.96;62.93;99966.81;5002302;28;20056;-76
2021/10/03 03:03:47;;;;;;;17.45;11.73;;;;;;;13.97;63.25;99970.34;5000447;28;20042;-77
2021/10/03 03:06:13;;;;;;;14.93;11.48;;;;;;;13.92;63.11;99965.16;5002786;28;20374;-77
2021/10/03 03:08:38;;;;;;;15.65;11.40;;;;;;;13.91;63.45;99967.84;5000040;28;20497;-77
2021/10/03 03:11:04;;;;;;;19.10;11.77;;;;;;;13.91;63.35;99962.53;5003385;28;20091;-76
2021/10/03 03:13:29;;;;;;;15.48;11.55;;;;;;;13.93;63.93;99972.19;4999473;28;20486;-77
2021/10/03 03:15:56;;;;;;;15.88;11.38;;;;;;;13.98;63.27;99969.41;5003068;28;20042;-77
2021/10/03 03:18:21;;;;;;;16.30;11.85;;;;;;;13.98;63.53;99972.94;5000124;28;20043;-77
2021/10/03 03:20:47;;;;;;;14.77;11.40;;;;;;;13.99;63.51;99973.78;5002456;28;20113;-77
2021/10/03 03:23:12;;;;;;;14.05;11.23;;;;;;;14.00;63.21;99962.28;5000597;28;20065;-77
2021/10/03 03:25:38;;;;;;;16.13;11.18;;;;;;;14.04;63.35;99979.84;5001921;28;20413;-77
2021/10/03 03:28:05;;;;;;;15.88;11.65;;;;;;;14.10;63.54;99977.03;4998017;28;20077;-75
2021/10/03 03:30:30;;;;;;;13.52;11.65;;;;;;;14.20;63.37;99982.91;5006189;28;20041;-76
2021/10/03 03:32:56;;;;;;;13.73;11.38;;;;;;;14.24;63.18;99982.78;5004319;28;20051;-76
2021/10/03 03:35:21;;;;;;;17.70;11.18;;;;;;;14.27;63.27;99981.81;5001678;28;20125;-76
2021/10/03 03:37:47;;;;;;;15.15;10.80;;;;;;;14.28;62.96;99972.97;5003791;28;20037;-75
2021/10/03 03:40:14;;;;;;;19.05;11.95;;;;;;;14.28;63.08;99964.09;4999852;28;20050;-76
2021/10/03 03:42:40;;;;;;;13.13;10.98;;;;;;;14.31;63.19;99970.19;5006272;28;20515;-76
2021/10/03 03:45:06;;;;;;;14.77;11.57;;;;;;;14.38;62.75;99974.41;4999212;28;20038;-75
2021/10/03 03:47:31;;;;;;;12.65;10.65;;;;;;;14.42;62.89;99973.38;5006780;28;20049;-77
2021/10/03 03:49:57;;;;;;;13.75;10.77;;;;;;;14.45;62.67;99978.59;5003599;28;20072;-77
2021/10/03 03:52:23;;;;;;;16.33;11.77;;;;;;;14.47;62.64;99963.50;5000360;28;20041;-77
2021/10/03 03:54:48;;;;;;;16.25;11.65;;;;;;;14.44;62.31;99970.69;5005661;28;20563;-77
2021/10/03 03:57:14;;;;;;;17.55;10.73;;;;;;;14.43;62.46;99974.25;5011690;28;20030;-77
2021/10/03 03:59:39;;;;;;;16.67;11.00;;;;;;;14.42;62.75;99972.53;5005586;28;20029;-77
2021/10/03 04:02:05;;;;;;;15.43;12.20;;;;;;;14.41;62.61;99976.97;5006714;28;20046;-77
2021/10/03 04:04:30;;;;;;;15.95;11.00;;;;;;;14.43;62.63;99976.91;5007949;28;20025;-77
2021/10/03 04:06:55;;;;;;;13.07;11.32;;;;;;;14.45;63.25;99959.16;5015566;28;20037;-77
2021/10/03 04:09:21;;;;;;;13.82;10.65;;;;;;;14.43;62.79;99961.84;4999332;28;20034;-77
2021/10/03 04:11:46;;;;;;;13.68;11.10;;;;;;;14.48;62.51;99959.06;5006876;28;20038;-77
2021/10/03 04:14:11;;;;;;;14.00;10.63;;;;;;;14.52;62.25;99955.41;5009956;28;20092;-77
2021/10/03 04:16:37;;;;;;;14.38;11.90;;;;;;;14.55;62.51;99954.47;5007784;28;20038;-76
2021/10/03 04:19:02;;;;;;;17.92;12.60;;;;;;;14.55;62.12;99950.00;5001821;28;20082;-76
2021/10/03 04:21:27;;;;;;;13.23;11.00;;;;;;;14.50;62.26;99953.72;5000854;28;20436;-76
2021/10/03 04:23:53;;;;;;;14.23;11.20;;;;;;;14.44;62.56;99958.28;5007694;28;20030;-77
2021/10/03 04:26:18;;;;;;;12.40;10.35;;;;;;;14.48;62.68;99953.75;5007910;28;20153;-77
2021/10/03 04:28:43;;;;;;;15.35;11.10;;;;;;;14.43;62.60;99961.84;5015905;28;20133;-77
2021/10/03 04:31:09;;;;;;;12.60;10.77;;;;;;;14.40;62.76;99951.31;5003686;28;20042;-77
2021/10/03 04:33:35;;;;;;;16.05;11.20;;;;;;;14.41;62.48;99965.50;5004920;28;20045;-76
2021/10/03 04:36:00;;;;;;;13.63;10.27;;;;;;;14.35;63.07;99963.88;5002820;28;20044;-76
2021/10/03 04:38:25;;;;;;;12.95;10.73;;;;;;;14.27;62.99;99957.94;5005667;28;20034;-77
2021/10/03 04:40:51;;;;;;;13.25;10.88;;;;;;;14.22;63.30;99962.50;5002347;28;20084;-77
2021/10/03 04:43:16;;;;;;;15.95;11.10;;;;;;;14.12;63.36;99948.66;5001796;28;20034;-76
2021/10/03 04:45:42;;;;;;;13.23;10.98;;;;;;;14.06;63.73;99950.63;5005373;28;20034;-76
2021/10/03 04:48:07;;;;;;;15.77;11.60;;;;;;;13.98;63.91;99945.53;5002716;28;20405;-76
2021/10/03 04:50:33;;;;;;;14.10;11.77;;;;;;;13.92;64.21;99943.94;5004527;28;20121;-77
2021/10/03 04:52:58;;;;;;;18.48;11.70;;;;;;;13.89;64.19;99936.06;5002930;28;20061;-76
2021/10/03 04:55:24;;;;;;;15.40;11.18;;;;;;;13.82;64.48;99935.38;5003692;28;20401;-76
2021/10/03 04:57:49;;;;;;;15.75;12.13;;;;;;;13.81;64.59;99941.59;5003778;28;20413;-76
2021/10/03 05:00:15;;;;;;;13.02;10.88;;;;;;;13.84;64.45;99938.00;5002936;28;20511;-76
2021/10/03 05:02:40;;;;;;;14.82;11.55;;;;;;;13.84;64.44;99939.78;5004196;28;20038;-76
2021/10/03 05:05:06;;;;;;;13.65;11.25;;;;;;;13.82;64.79;99937.16;5001107;28;20035;-76
2021/10/03 05:07:31;;;;;;;15.73;11.23;;;;;;;13.80;64.63;99944.28;5004794;28;20040;-76
2021/10/03 05:09:57;;;;;;;14.35;11.73;;;;;;;13.77;64.95;99942.59;5001704;28;20121;-76
2021/10/03 05:12:22;;;;;;;16.33;11.80;;;;;;;13.75;64.82;99947.09;5004821;28;20038;-76
2021/10/03 05:14:47;;;;;;;14.55;11.20;;;;;;;13.72;64.86;99939.19;5001725;28;20042;-76
2021/10/03 05:17:13;;;;;;;15.15;11.27;;;;;;;13.72;65.16;99935.69;5004264;28;20060;-76
2021/10/03 05:19:39;;;;;;;15.00;12.20;;;;;;;13.72;65.25;99943.63;5002565;28;20461;-76
2021/10/03 05:22:05;;;;;;;12.60;10.48;;;;;;;13.74;64.74;99933.88;5003528;28;20069;-76
2021/10/03 05:24:32;;;;;;;13.98;10.93;;;;;;;13.73;64.96;99930.34;5002722;28;20050;-76
2021/10/03 05:26:57;;;;;;;15.13;11.45;;;;;;;13.75;65.12;99938.25;5002935;28;20473;-76
2021/10/03 05:29:22;;;;;;;15.30;11.27;;;;;;;13.77;64.54;99934.63;5003433;28;20067;-76
2021/10/03 05:31:48;;;;;;;14.77;11.57;;;;;;;13.78;64.73;99931.09;5002172;28;20038;-76
2021/10/03 05:34:13;;;;;;;13.65;10.43;;;;;;;13.86;65.16;99930.88;5003831;28;20036;-76
2021/10/03 05:36:39;;;;;;;12.40;10.48;;;;;;;13.92;64.68;99937.78;5008681;28;20124;-76
2021/10/03 05:39:04;;;;;;;15.30;11.05;;;;;;;13.93;64.72;99935.06;5001160;28;20046;-76
2021/10/03 05:41:30;;;;;;;15.68;11.68;;;;;;;13.96;64.94;99935.00;5004597;28;20048;-76
2021/10/03 05:43:56;;;;;;;15.07;11.23;;;;;;;14.03;65.00;99936.53;5001150;28;20034;-77
2021/10/03 05:46:22;;;;;;;15.50;11.38;;;;;;;14.05;64.42;99938.28;4999575;28;20049;-76
2021/10/03 05:48:47;;;;;;;13.55;10.95;;;;;;;14.10;64.19;99929.25;5003695;28;20603;-77
2021/10/03 05:51:12;;;;;;;16.05;11.82;;;;;;;14.15;64.40;99922.03;5002399;28;20125;-76
2021/10/03 05:53:38;;;;;;;14.70;11.15;;;;;;;14.24;64.21;99928.84;5008869;28;20061;-76
2021/10/03 05:56:03;;;;;;;14.32;10.35;;;;;;;14.35;64.02;99921.38;5003338;28;20084;-76
2021/10/03 05:58:29;;;;;;;15.40;11.18;;;;;;;14.48;63.72;99917.44;5001985;28;20041;-76
2021/10/03 06:00:54;;;;;;;13.10;10.38;;;;;;;14.62;63.34;99925.00;5004698;28;20029;-75
2021/10/03 06:03:20;;;;;;;15.27;11.40;;;;;;;14.71;62.95;99915.00;5007473;28;20552;-76
2021/10/03 06:05:45;;;;;;;18.52;11.63;;;;;;;14.83;62.64;99923.44;5005552;28;20030;-76
2021/10/03 06:08:11;;;;;;;14.23;10.50;;;;;;;14.87;62.13;99911.78;5003149;28;20416;-76
2021/10/03 06:10:37;;;;;;;14.10;10.90;;;;;;;14.93;62.15;99917.78;5006295;28;20036;-76
2021/10/03 06:13:04;;;;;;;14.98;11.30;;;;;;;15.06;61.24;99917.34;5001640;28;20513;-76
2021/10/03 06:15:31;;;;;;;14.80;11.38;;;;;;;15.20;61.50;99921.31;5005519;28;20073;-76
2021/10/03 06:17:56;;;;;;;12.63;10.60;;;;;;;15.34;60.99;99919.88;5004133;28;20055;-77
2021/10/03 06:20:21;;;;;;;14.57;11.13;;;;;;;15.44;60.63;99927.56;5008110;28;20077;-77
2021/10/03 06:22:47;;;;;;;13.75;10.15;;;;;;;15.57;60.68;99936.81;5002482;28;20035;-76
2021/10/03 06:25:13;;;;;;;13.45;10.48;;;;;;;15.70;59.96;99929.31;5005292;28;20048;-76
2021/10/03 06:27:39;;;;;;;15.68;9.15;;;;;;;15.80;59.75;99927.16;5008141;28;20022;-78
2021/10/03 06:30:05;;;;;;;13.23;10.05;;;;;;;15.84;59.53;99929.66;5008159;28;20038;-78
2021/10/03 06:32:31;;;;;;;14.15;10.13;;;;;;;15.89;59.66;99927.69;5007963;28;20030;-78
2021/10/03 06:34:56;;;;;;;10.80;9.35;;;;;;;15.99;59.31;99933.53;5009206;28;20088;-78
2021/10/03 06:37:21;;;;;;;12.27;10.45;;;;;;;16.09;59.00;99926.94;5008017;28;20038;-78
2021/10/03 06:39:47;;;;;;;12.00;10.45;;;;;;;16.14;59.08;99932.94;5013114;28;20104;-77
2021/10/03 06:42:12;;;;;;;13.20;10.32;;;;;;;16.25;58.40;99937.84;5002598;28;20049;-78
2021/10/03 06:44:38;;;;;;;16.67;10.20;;;;;;;16.31;58.16;99931.41;5005201;28;20041;-77
2021/10/03 06:47:08;;;;;;;13.43;10.00;;;;;;;16.28;57.98;99939.53;5003699;28;20049;-77
2021/10/03 06:49:33;;;;;;;13.25;9.82;;;;;;;16.34;58.14;99929.50;5007174;28;20044;-77
2021/10/03 06:51:59;;;;;;;13.00;10.30;;;;;;;16.39;58.08;99932.84;5008259;28;20436;-77
2021/10/03 06:54:24;;;;;;;12.93;9.68;;;;;;;16.46;58.23;99935.28;5014182;28;20076;-78
2021/10/03 06:56:49;;;;;;;12.55;9.85;;;;;;;16.62;57.80;99934.59;5008205;28;20073;-78
2021/10/03 06:59:16;;;;;;;14.73;9.88;;;;;;;16.74;57.50;99930.56;5008362;28;20052;-78
2021/10/03 07:01:42;;;;;;;14.13;10.05;;;;;;;16.75;57.13;99934.97;5008338;28;20037;-78
2021/10/03 07:04:07;;;;;;;10.40;9.30;;;;;;;16.83;56.57;99927.53;5006901;28;20041;-78
2021/10/03 07:06:33;;;;;;;13.02;8.82;;;;;;;16.94;56.75;99929.75;5010798;28;20038;-78
2021/10/03 07:08:58;;;;;;;13.52;9.48;;;;;;;17.02;56.71;99922.31;5013937;28;20412;-78
2021/10/03 07:11:23;;;;;;;13.85;9.20;;;;;;;17.07;56.37;99925.63;5009773;28;20420;-78
2021/10/03 07:13:49;;;;;;;12.13;9.50;;;;;;;17.07;55.94;99932.78;5013973;28;20500;-78
2021/10/03 07:16:15;;;;;;;14.40;9.18;;;;;;;17.19;56.01;99921.59;5009237;28;20045;-78
2021/10/03 07:18:40;;;;;;;13.48;9.73;;;;;;;17.34;56.23;99927.19;5007654;28;20134;-78
2021/10/03 07:21:06;;;;;;;12.65;9.57;;;;;;;17.44;55.29;99928.53;5010870;28;20053;-78
2021/10/03 07:23:32;;;;;;;10.32;9.00;;;;;;;17.50;55.14;99925.56;5008517;28;20058;-78
2021/10/03 07:25:58;;;;;;;11.98;8.75;;;;;;;17.62;55.11;99926.84;5009881;28;20097;-78
2021/10/03 07:28:24;;;;;;;10.40;9.13;;;;;;;17.62;55.24;99929.50;5009446;28;20041;-78
2021/10/03 07:30:50;;;;;;;12.63;8.63;;;;;;;17.68;55.31;99922.09;5014129;28;20033;-78
2021/10/03 07:33:18;;;;;;;14.23;10.50;;;;;;;17.75;54.69;99914.69;5014727;28;20042;-78
2021/10/03 07:35:43;;;;;;;12.45;9.23;;;;;;;17.86;54.62;99917.75;5025306;28;20038;-78
2021/10/03 07:38:08;;;;;;;13.50;9.90;;;;;;;17.91;53.82;99923.75;5017116;28;20030;-77
2021/10/03 07:40:34;;;;;;;11.77;9.30;;;;;;;18.00;53.71;99927.81;5023243;28;20037;-77
2021/10/03 07:42:59;;;;;;;11.88;8.93;;;;;;;18.05;53.98;99916.88;5015448;28;20049;-78
2021/10/03 07:45:24;;;;;;;11.95;8.73;;;;;;;18.14;53.20;99924.47;5012340;28;20451;-79
2021/10/03 07:47:50;;;;;;;10.93;8.48;;;;;;;18.19;53.15;99927.81;5017382;28;20038;-78
2021/10/03 07:50:15;;;;;;;11.63;8.75;;;;;;;18.37;53.43;99920.72;5012287;28;20492;-78
2021/10/03 07:52:41;;;;;;;10.48;8.30;;;;;;;18.48;53.18;99926.41;5014360;28;20084;-78
2021/10/03 07:55:06;;;;;;;15.32;9.18;;;;;;;18.60;52.43;99922.25;5015094;28;20042;-77
2021/10/03 07:57:32;;;;;;;11.18;8.85;;;;;;;18.75;52.70;99920.69;5018389;28;20057;-78
2021/10/03 07:59:57;;;;;;;10.77;8.45;;;;;;;18.84;52.38;99920.25;5021381;28;20069;-77
2021/10/03 08:02:23;;;;;;;11.55;8.88;;;;;;;18.80;51.17;99922.19;5014832;28;20025;-79
2021/10/03 08:04:48;;;;;;;12.70;9.05;;;;;;;18.80;51.70;99918.66;5014798;28;20203;-79
2021/10/03 08:07:13;;;;;;;10.60;8.43;;;;;;;18.90;51.91;99921.72;5032605;28;20080;-79
2021/10/03 08:09:39;;;;;;;11.25;9.13;;;;;;;18.83;52.09;99916.69;5015164;28;20042;-78
2021/10/03 08:12:04;;;;;;;12.77;8.77;;;;;;;18.96;51.55;99913.41;5014500;28;20057;-78
2021/10/03 08:14:30;;;;;;;11.00;8.13;;;;;;;19.03;52.09;99909.47;5011345;28;20022;-79
2021/10/03 08:16:55;;;;;;;13.13;8.65;;;;;;;19.08;52.24;99918.13;5016085;28;20097;-79
2021/10/03 08:19:20;;;;;;;9.85;7.90;;;;;;;19.26;51.45;99908.28;5014282;28;20233;-79
2021/10/03 08:21:45;;;;;;;11.35;8.23;;;;;;;19.24;51.30;99911.03;5017035;28;20030;-78
2021/10/03 08:24:11;;;;;;;12.52;9.38;;;;;;;19.22;50.74;99914.72;5037378;28;20078;-79
2021/10/03 08:26:38;;;;;;;9.80;8.43;;;;;;;19.14;51.05;99923.16;5023857;28;20089;-79
2021/10/03 08:29:03;;;;;;;11.63;9.20;;;;;;;19.15;51.87;99919.56;5014513;28;20116;-79
2021/10/03 08:31:28;;;;;;;11.18;8.10;;;;;;;19.14;51.59;99920.47;5013275;28;20073;-80
2021/10/03 08:33:54;;;;;;;13.85;8.75;;;;;;;19.11;51.21;99912.63;5015901;28;20038;-78
2021/10/03 08:36:19;;;;;;;13.48;8.25;;;;;;;19.22;51.63;99910.25;5027393;28;20042;-80
2021/10/03 08:38:44;;;;;;;14.38;9.02;;;;;;;19.35;51.35;99909.63;5014314;28;20038;-79
2021/10/03 08:41:10;;;;;;;10.75;8.32;;;;;;;19.32;51.27;99915.13;5013751;28;20060;-79
2021/10/03 08:43:36;;;;;;;12.57;8.75;;;;;;;19.41;50.83;99914.63;5011044;28;20402;-80
2021/10/03 08:46:02;;;;;;;10.38;7.85;;;;;;;19.62;51.14;99916.19;5012984;28;20060;-80
2021/10/03 08:48:27;;;;;;;11.13;9.00;;;;;;;19.79;50.73;99903.75;5010536;28;20110;-81
2021/10/03 08:50:52;;;;;;;12.80;8.20;;;;;;;19.79;49.85;99904.59;5013418;28;20030;-80
2021/10/03 08:53:18;;;;;;;12.52;8.55;;;;;;;19.83;49.80;99903.50;5010513;28;20034;-80
2021/10/03 08:55:45;;;;;;;9.50;7.93;;;;;;;20.02;49.56;99908.72;5012280;28;20105;-81
2021/10/03 08:58:11;;;;;;;9.80;7.97;;;;;;;20.10;49.59;99903.78;5012083;28;20053;-81
2021/10/03 09:00:48;;;;;;;9.57;7.97;;;;;;;20.12;49.01;99901.00;5052484;22;20053;-78
2021/10/03 09:03:17;;;;;;;8.30;7.15;;;;;;;20.11;49.00;99907.31;5041441;28;20092;-78
2021/10/03 09:05:54;;;;;;;9.45;7.80;;;;;;;20.19;49.52;99898.88;5044248;28;20035;-78
2021/10/03 09:08:30;;;;;;;10.73;7.88;;;;;;;20.18;49.45;99902.50;5042722;28;20049;-78
2021/10/03 09:11:10;;;;;;;10.10;8.27;;;;;;;20.10;48.64;99901.09;5043710;28;20041;-78
2021/10/03 09:13:35;;;;;;;11.55;8.10;;;;;;;20.18;49.27;99910.53;5044797;28;20037;-78
2021/10/03 09:16:21;;;;;;;10.75;7.90;;;;;;;20.20;49.15;99911.28;5041450;28;20068;-77
2021/10/03 09:18:57;;;;;;;11.25;7.65;;;;;;;20.34;49.94;99906.91;5043463;28;20034;-78
2021/10/03 09:21:28;;;;;;;11.80;7.72;;;;;;;20.43;48.77;99910.00;5043056;28;20048;-78
2021/10/03 09:24:01;;;;;;;11.52;7.80;;;;;;;20.48;49.31;99905.25;5058413;28;20033;-78
2021/10/03 09:26:27;;;;;;;12.30;7.78;;;;;;;20.58;49.96;99910.03;5040300;28;20136;-78
2021/10/03 09:28:53;;;;;;;11.13;7.80;;;;;;;20.70;49.57;99907.63;5041625;28;20373;-78
2021/10/03 09:31:21;;;;;;;10.82;7.72;;;;;;;20.64;48.37;99897.22;5043836;28;20540;-78
2021/10/03 09:33:54;;;;;;;12.57;8.45;;;;;;;20.62;49.17;99893.75;5045352;28;20049;-78
2021/10/03 09:36:30;;;;;;;10.45;7.85;;;;;;;20.71;48.71;99899.47;5047728;28;20037;-78
2021/10/03 09:39:05;;;;;;;11.32;7.95;;;;;;;20.73;48.63;99894.88;5042265;28;20049;-77
2021/10/03 09:41:32;;;;;;;9.95;7.65;;;;;;;20.70;49.29;99903.09;5043344;28;20028;-77
2021/10/03 09:44:05;;;;;;;11.02;8.00;;;;;;;20.69;48.59;99901.38;5043004;28;20391;-78
2021/10/03 09:46:35;;;;;;;10.63;8.13;;;;;;;20.76;48.43;99891.16;5042676;28;20032;-77
2021/10/03 09:49:02;;;;;;;13.30;8.23;;;;;;;20.68;48.59;99888.06;5039194;28;20116;-78
2021/10/03 09:51:28;;;;;;;9.85;8.07;;;;;;;20.58;49.27;99893.94;5043079;28;20049;-78
2021/10/03 09:53:54;;;;;;;9.73;8.25;;;;;;;20.62;48.71;99880.34;5042359;28;20032;-78
2021/10/03 09:56:20;;;;;;;9.95;7.07;;;;;;;20.70;48.47;99886.16;5042926;28;20479;-78
2021/10/03 09:58:46;;;;;;;12.20;8.10;;;;;;;20.70;48.39;99880.81;5043214;28;20047;-78
2021/10/03 10:01:13;;;;;;;11.27;7.63;;;;;;;20.80;48.48;99887.31;5037590;28;20044;-78
2021/10/03 10:03:38;;;;;;;14.27;7.90;;;;;;;20.84;48.65;99882.66;5047245;28;20025;-77
2021/10/03 10:06:05;;;;;;;9.80;7.07;;;;;;;20.90;48.35;99876.94;5041979;28;20182;-78
2021/10/03 10:08:33;;;;;;;12.30;8.35;;;;;;;20.96;48.25;99877.44;5043002;28;20060;-78
2021/10/03 10:11:10;;;;;;;10.27;8.38;;;;;;;20.95;48.13;99878.38;5041824;28;20040;-78
2021/10/03 10:13:38;;;;;;;11.45;8.88;;;;;;;21.04;48.51;99876.09;5046727;28;20064;-77
2021/10/03 10:16:25;;;;;;;12.52;8.52;;;;;;;20.99;48.28;99877.25;5045729;28;20060;-79
2021/10/03 10:18:51;;;;;;;9.18;7.75;;;;;;;20.99;48.24;99866.53;5044395;28;20075;-78
2021/10/03 10:21:21;;;;;;;11.23;9.73;;;;;;;21.06;48.32;99871.50;5044274;28;20119;-77
2021/10/03 10:23:47;;;;;;;11.82;8.65;;;;;;;21.20;48.42;99875.09;5044148;28;20037;-78
2021/10/03 10:26:38;;;;;;;10.30;8.50;;;;;;;21.28;48.11;99866.59;5043386;28;20044;-79
2021/10/03 10:29:41;;;;;;;10.77;8.63;;;;;;;21.31;48.25;99870.91;5041395;28;20496;-78
2021/10/03 10:32:08;;;;;;;9.73;7.47;;;;;;;21.39;48.03;99864.13;5040630;28;20047;-79
2021/10/03 10:35:11;;;;;;;9.52;7.45;;;;;;;21.48;48.29;99860.00;5047936;28;20036;-79
2021/10/03 10:37:48;;;;;;;12.02;8.40;;;;;;;21.50;47.57;99862.59;5041116;28;20065;-78
2021/10/03 10:40:22;;;;;;;11.38;7.40;;;;;;;21.48;47.05;99873.44;5042129;28;20087;-78
2021/10/03 10:42:51;;;;;;;8.65;7.30;;;;;;;21.55;46.46;99860.50;5043285;28;20106;-78
2021/10/03 10:45:28;;;;;;;9.05;7.38;;;;;;;21.65;46.11;99869.72;5041638;28;20080;-79
2021/10/03 10:48:08;;;;;;;9.15;7.20;;;;;;;21.70;46.26;99867.59;5039748;28;20057;-78
2021/10/03 10:50:40;;;;;;;10.57;7.65;;;;;;;21.75;46.20;99870.84;5044440;28;20037;-78
2021/10/03 10:53:24;;;;;;;;;;;;;;;21.93;46.59;99881.38;5045347;28;20124;-78
2021/10/03 10:56:09;;;;;;;10.75;7.05;;;;;;;22.12;46.95;99873.88;5040133;28;20389;-77
2021/10/03 10:58:59;;;;;;;13.48;7.50;;;;;;;22.27;46.63;99862.19;5036964;28;20063;-75
2021/10/03 11:01:30;;;;;;;588.97;136.65;;;;;;;22.47;45.95;99862.69;5047824;28;20058;-78
2021/10/03 11:04:00;;;;;;;9.93;7.32;;;;;;;22.60;46.16;99868.97;5045717;28;20111;-77
2021/10/03 11:06:31;;;;;;;7.80;6.82;;;;;;;22.69;45.71;99863.00;5048272;28;20060;-76
2021/10/03 11:08:56;;;;;;;10.18;7.38;;;;;;;22.80;46.13;99858.72;5051131;28;20033;-77
2021/10/03 11:11:23;;;;;;;9.75;7.22;;;;;;;22.87;45.46;99854.63;5052822;28;20041;-77
2021/10/03 11:13:49;;;;;;;9.63;7.30;;;;;;;23.02;45.20;99853.59;5054712;28;20067;-78
2021/10/03 11:16:25;;;;;;;14.38;6.57;;;;;;;23.09;44.77;99854.91;5045608;28;20028;-77
2021/10/03 11:19:13;;;;;;;38.03;16.48;;;;;;;23.17;44.39;99852.56;5046833;28;20095;-78
2021/10/03 11:21:45;;;;;;;8.27;6.70;;;;;;;23.33;43.99;99846.97;5051147;28;20037;-79